Time;durP1;ratioP1;P1;durP2;ratioP2;P2;SDS_P1;SDS_P2;PMS_P1;PMS_P2;Temp;Humidity;BMP_temperature;BMP_pressure;BME280_temperature;BME280_humidity;BME280_pressure;Samples;Min_cycle;Max_cycle;Signal;HPM_P1;HPM_P2
2021/09/06 00:00:01;;;;;;;11.12;5.50;;;;;;;20.71;34.76;100512.34;1663287;82;21153;-54
2021/09/06 00:02:27;;;;;;;12.40;5.50;;;;;;;20.70;34.75;100509.28;1720249;81;21637;-55
2021/09/06 00:04:54;;;;;;;10.25;5.40;;;;;;;20.68;34.72;100512.53;1718512;81;21043;-55
2021/09/06 00:07:22;;;;;;;16.00;5.97;;;;;;;20.66;34.70;100511.77;1721752;80;21566;-54
2021/09/06 00:09:53;;;;;;;10.35;5.37;;;;;;;20.66;34.71;100517.12;1723582;81;21229;-54
2021/09/06 00:12:21;;;;;;;10.15;5.08;;;;;;;20.64;34.71;100513.65;1700879;80;21070;-53
2021/09/06 00:14:48;;;;;;;10.53;5.33;;;;;;;20.65;34.68;100513.20;1700058;81;21062;-54
2021/09/06 00:17:17;;;;;;;15.78;5.40;;;;;;;20.63;34.72;100509.28;1687390;83;21138;-54
2021/09/06 00:19:43;;;;;;;14.83;5.50;;;;;;;20.64;34.71;100518.15;1710652;83;21208;-54
2021/09/06 00:22:10;;;;;;;9.13;5.35;;;;;;;20.62;34.76;100515.53;1718636;81;21150;-53
2021/09/06 00:24:36;;;;;;;14.03;5.67;;;;;;;20.61;34.75;100512.49;1720099;82;21500;-54
2021/09/06 00:27:03;;;;;;;8.25;5.50;;;;;;;20.60;34.71;100513.44;1717299;81;21078;-54
2021/09/06 00:29:33;;;;;;;11.10;4.97;;;;;;;20.59;34.78;100518.39;1718833;80;21648;-53
2021/09/06 00:32:03;;;;;;;11.50;5.60;;;;;;;20.58;34.82;100518.02;1692557;83;21145;-54
2021/09/06 00:34:30;;;;;;;13.18;6.05;;;;;;;20.57;34.92;100516.29;1666461;83;21083;-53
2021/09/06 00:36:56;;;;;;;16.42;5.67;;;;;;;20.56;34.96;100515.44;1704773;83;20979;-54
2021/09/06 00:39:23;;;;;;;12.13;5.70;;;;;;;20.57;34.96;100512.28;1735161;81;21102;-51
2021/09/06 00:41:51;;;;;;;13.90;6.30;;;;;;;20.57;34.95;100517.63;1708848;83;21553;-54
2021/09/06 00:44:18;;;;;;;18.62;6.67;;;;;;;20.56;34.98;100513.22;1705331;83;21130;-55
2021/09/06 00:46:47;;;;;;;13.48;6.80;;;;;;;20.54;34.96;100512.45;1668938;84;21046;-55
2021/09/06 00:49:19;;;;;;;20.27;7.22;;;;;;;20.54;34.93;100515.13;1663420;84;21563;-54
2021/09/06 00:51:46;;;;;;;14.58;7.15;;;;;;;20.53;34.89;100516.95;1653672;84;21742;-54
2021/09/06 00:54:14;;;;;;;19.50;7.70;;;;;;;20.51;34.81;100509.97;1664384;84;21045;-54
2021/09/06 00:56:44;;;;;;;20.23;6.83;;;;;;;20.50;34.77;100516.28;1683840;83;21794;-54
2021/09/06 00:59:12;;;;;;;17.00;6.85;;;;;;;20.48;34.79;100515.52;1657196;84;21115;-54
2021/09/06 01:01:40;;;;;;;20.27;7.15;;;;;;;20.46;34.76;100512.94;1654121;84;21612;-51
2021/09/06 01:04:08;;;;;;;16.60;7.12;;;;;;;20.45;34.81;100517.03;1652316;83;21707;-54
2021/09/06 01:06:39;;;;;;;20.08;7.47;;;;;;;20.44;34.85;100517.98;1640538;85;21095;-52
2021/09/06 01:09:13;;;;;;;16.67;7.85;;;;;;;20.43;34.81;100514.94;1671907;83;21157;-53
2021/09/06 01:11:51;;;;;;;19.50;8.28;;;;;;;20.40;34.73;100516.82;1649777;83;21099;-53
2021/09/06 01:14:19;;;;;;;14.23;7.05;;;;;;;20.39;34.70;100515.57;1646507;84;21099;-54
2021/09/06 01:16:45;;;;;;;16.35;7.53;;;;;;;20.37;34.72;100512.98;1667506;84;21045;-54
2021/09/06 01:19:11;;;;;;;17.60;7.30;;;;;;;20.36;34.75;100515.30;1707053;80;21090;-52
2021/09/06 01:21:38;;;;;;;20.32;7.75;;;;;;;20.34;34.78;100515.87;1720621;80;21061;-54
2021/09/06 01:24:09;;;;;;;15.25;7.28;;;;;;;20.33;34.72;100520.81;1704186;80;21113;-53
2021/09/06 01:26:36;;;;;;;16.82;7.03;;;;;;;20.32;34.72;100517.75;1655021;84;21586;-54
2021/09/06 01:29:08;;;;;;;16.55;7.15;;;;;;;20.29;34.70;100521.97;1669702;83;21090;-55
2021/09/06 01:31:35;;;;;;;17.42;7.28;;;;;;;20.28;34.66;100518.89;1662424;83;21082;-55
2021/09/06 01:34:02;;;;;;;14.60;7.30;;;;;;;20.28;34.63;100517.56;1642129;84;21305;-53
2021/09/06 01:36:29;;;;;;;14.50;7.80;;;;;;;20.28;34.57;100524.23;1672734;83;21063;-52
2021/09/06 01:38:57;;;;;;;15.80;7.90;;;;;;;20.26;34.50;100519.47;1708583;83;21248;-54
2021/09/06 01:41:24;;;;;;;16.48;7.97;;;;;;;20.27;34.47;100525.66;1708771;82;21031;-53
2021/09/06 01:43:51;;;;;;;15.23;7.45;;;;;;;20.23;34.43;100520.49;1711134;82;21037;-53
2021/09/06 01:46:19;;;;;;;17.05;8.00;;;;;;;20.22;34.47;100523.25;1708514;82;21145;-54
2021/09/06 01:48:45;;;;;;;13.15;6.40;;;;;;;20.22;34.43;100529.94;1652919;84;21564;-54
2021/09/06 01:51:12;;;;;;;17.70;7.80;;;;;;;20.22;34.40;100529.94;1668426;84;21087;-56
2021/09/06 01:53:39;;;;;;;16.93;7.55;;;;;;;20.20;34.34;100530.51;1636561;84;21587;-55
2021/09/06 01:56:06;;;;;;;14.00;7.53;;;;;;;20.19;34.37;100529.66;1659690;83;21118;-55
2021/09/06 01:58:33;;;;;;;14.50;6.97;;;;;;;20.20;34.42;100534.52;1655826;84;21217;-58
2021/09/06 02:01:00;;;;;;;14.20;7.53;;;;;;;20.19;34.41;100531.45;1699143;83;21133;-56
2021/09/06 02:03:29;;;;;;;13.05;7.10;;;;;;;20.18;34.47;100527.92;1683350;83;21056;-57
2021/09/06 02:05:56;;;;;;;17.07;7.37;;;;;;;20.18;34.50;100533.27;1697015;81;21338;-56
2021/09/06 02:08:28;;;;;;;13.85;7.05;;;;;;;20.16;34.48;100533.84;1659364;83;21703;-56
2021/09/06 02:10:56;;;;;;;11.57;6.95;;;;;;;20.15;34.56;100529.92;1682556;82;21851;-54
2021/09/06 02:13:22;;;;;;;13.90;6.58;;;;;;;20.12;34.44;100531.42;1715452;80;20964;-57
2021/09/06 02:15:51;;;;;;;14.38;7.67;;;;;;;20.07;34.40;100534.84;1708036;82;21168;-55
2021/09/06 02:18:19;;;;;;;13.35;7.08;;;;;;;19.99;34.43;100533.97;1707745;82;21498;-54
2021/09/06 02:20:45;;;;;;;11.05;6.90;;;;;;;19.95;34.40;100537.27;1707438;82;21090;-56
2021/09/06 02:23:13;;;;;;;14.43;7.12;;;;;;;19.91;34.37;100540.22;1649373;84;21121;-57
2021/09/06 02:25:41;;;;;;;12.73;6.80;;;;;;;19.85;34.43;100542.75;1621453;84;22217;-57
2021/09/06 02:28:08;;;;;;;13.00;7.22;;;;;;;19.79;34.50;100544.45;1655734;84;20997;-56
2021/09/06 02:30:35;;;;;;;13.70;7.53;;;;;;;19.73;34.55;100547.42;1705970;83;21628;-58
2021/09/06 02:33:02;;;;;;;12.55;6.92;;;;;;;19.68;34.60;100545.86;1711082;83;21098;-57
2021/09/06 02:35:30;;;;;;;10.72;7.08;;;;;;;19.64;34.63;100542.98;1708184;83;21339;-55
2021/09/06 02:37:57;;;;;;;12.78;6.70;;;;;;;19.62;34.63;100546.22;1694546;82;22339;-57
2021/09/06 02:40:24;;;;;;;11.35;7.30;;;;;;;19.59;34.65;100551.73;1658005;83;21055;-55
2021/09/06 02:42:52;;;;;;;19.48;7.17;;;;;;;19.55;34.62;100555.53;1658820;83;21094;-58
2021/09/06 02:45:18;;;;;;;12.05;7.33;;;;;;;19.51;34.71;100551.29;1726362;81;21074;-55
2021/09/06 02:47:48;;;;;;;13.13;7.85;;;;;;;19.49;34.76;100559.37;1713063;81;21054;-58
2021/09/06 02:50:15;;;;;;;12.80;6.92;;;;;;;19.47;34.75;100556.42;1711890;81;21046;-56
2021/09/06 02:52:42;;;;;;;14.50;7.47;;;;;;;19.45;34.78;100563.63;1690785;81;21050;-55
2021/09/06 02:55:10;;;;;;;11.10;6.92;;;;;;;19.42;34.75;100563.34;1671361;83;21151;-57
2021/09/06 02:57:39;;;;;;;12.58;7.37;;;;;;;19.41;34.70;100563.42;1734234;80;21013;-57
2021/09/06 03:00:07;;;;;;;14.53;7.35;;;;;;;19.39;34.69;100563.50;1688440;81;21114;-56
2021/09/06 03:02:34;;;;;;;12.23;7.40;;;;;;;19.38;34.69;100568.92;1729313;81;21123;-55
2021/09/06 03:05:03;;;;;;;12.65;7.25;;;;;;;19.36;34.71;100565.48;1693442;81;21029;-55
2021/09/06 03:07:30;;;;;;;14.20;6.92;;;;;;;19.35;34.75;100569.08;1733039;80;21020;-57
2021/09/06 03:09:57;;;;;;;14.18;7.92;;;;;;;19.33;34.75;100566.98;1719637;81;21675;-57
2021/09/06 03:12:24;;;;;;;13.60;7.20;;;;;;;19.33;34.71;100568.31;1718603;80;21229;-55
2021/09/06 03:14:50;;;;;;;12.85;7.37;;;;;;;19.31;34.74;100572.39;1696041;80;21513;-57
2021/09/06 03:17:17;;;;;;;20.17;7.20;;;;;;;19.31;34.72;100571.91;1722707;80;21053;-56
2021/09/06 03:19:46;;;;;;;12.50;7.37;;;;;;;19.31;34.78;100573.73;1710961;82;21411;-55
2021/09/06 03:22:12;;;;;;;14.78;7.92;;;;;;;19.29;34.78;100576.95;1716298;81;21067;-55
2021/09/06 03:24:39;;;;;;;14.45;7.05;;;;;;;19.29;34.80;100579.63;1684021;83;21213;-58
2021/09/06 03:27:06;;;;;;;11.53;7.03;;;;;;;19.27;34.82;100572.19;1691594;82;21735;-56
2021/09/06 03:29:32;;;;;;;14.68;7.65;;;;;;;19.25;34.83;100576.27;1658172;83;21183;-59
2021/09/06 03:31:59;;;;;;;15.32;7.72;;;;;;;19.24;34.87;100573.20;1688043;83;21101;-59
2021/09/06 03:34:27;;;;;;;17.60;7.65;;;;;;;19.23;34.90;100579.50;1716793;81;21079;-59
2021/09/06 03:36:54;;;;;;;12.78;7.83;;;;;;;19.22;34.95;100581.77;1705519;81;22219;-59
2021/09/06 03:39:21;;;;;;;15.30;7.83;;;;;;;19.21;34.96;100574.69;1715127;81;21239;-58
2021/09/06 03:41:48;;;;;;;15.63;7.45;;;;;;;19.21;34.97;100580.51;1677367;84;21493;-59
2021/09/06 03:44:15;;;;;;;18.48;8.30;;;;;;;19.20;34.99;100586.33;1714720;81;21126;-58
2021/09/06 03:46:45;;;;;;;19.12;7.95;;;;;;;19.18;35.04;100592.22;1731586;81;21019;-57
2021/09/06 03:49:12;;;;;;;16.10;7.45;;;;;;;19.18;35.11;100586.00;1728102;81;21096;-58
2021/09/06 03:51:40;;;;;;;13.43;7.37;;;;;;;19.17;35.12;100586.97;1718277;81;21144;-56
2021/09/06 03:54:07;;;;;;;10.88;7.60;;;;;;;19.15;35.20;100591.05;1708893;81;21095;-57
2021/09/06 03:56:33;;;;;;;15.65;7.85;;;;;;;19.14;35.25;100585.31;1696700;82;21090;-58
2021/09/06 03:58:59;;;;;;;12.93;7.67;;;;;;;19.16;35.28;100593.23;1707473;82;21050;-59
2021/09/06 04:01:26;;;;;;;15.58;7.83;;;;;;;19.14;35.30;100598.65;1700321;82;21111;-58
2021/09/06 04:03:53;;;;;;;10.88;7.30;;;;;;;19.18;35.30;100604.68;1703704;82;21060;-59
2021/09/06 04:06:20;;;;;;;14.03;7.20;;;;;;;19.20;35.36;100600.11;1677450;82;21005;-56
2021/09/06 04:08:47;;;;;;;14.30;7.45;;;;;;;19.21;35.36;100600.03;1686944;83;21051;-59
2021/09/06 04:11:14;;;;;;;16.00;6.45;;;;;;;19.25;35.38;100608.28;1694549;83;21668;-58
2021/09/06 04:13:42;;;;;;;15.15;7.50;;;;;;;19.26;35.38;100602.47;1661455;83;21175;-59
2021/09/06 04:16:10;;;;;;;13.45;7.55;;;;;;;19.26;35.43;100612.66;1682674;83;21518;-58
2021/09/06 04:18:39;;;;;;;14.20;7.00;;;;;;;19.24;35.46;100609.22;1693326;83;21174;-58
2021/09/06 04:21:05;;;;;;;14.43;6.62;;;;;;;19.25;35.54;100616.77;1718183;81;21600;-59
2021/09/06 04:23:33;;;;;;;11.18;6.75;;;;;;;19.26;35.54;100613.14;1723783;81;21066;-58
2021/09/06 04:26:01;;;;;;;11.88;6.83;;;;;;;19.26;35.59;100612.66;1717260;80;21074;-59
2021/09/06 04:28:30;;;;;;;11.68;6.97;;;;;;;19.26;35.64;100613.14;1708505;81;21070;-58
2021/09/06 04:30:57;;;;;;;10.78;6.50;;;;;;;19.25;35.66;100612.28;1694189;81;22559;-55
2021/09/06 04:33:25;;;;;;;11.33;6.92;;;;;;;19.25;35.68;100620.30;1696549;82;21660;-59
2021/09/06 04:35:53;;;;;;;16.17;7.25;;;;;;;19.23;35.70;100619.52;1688464;81;21587;-58
2021/09/06 04:38:19;;;;;;;14.47;7.12;;;;;;;19.24;35.73;100619.89;1722797;80;21076;-58
2021/09/06 04:40:46;;;;;;;18.73;9.73;;;;;;;19.26;35.74;100619.33;1706208;82;20985;-57
2021/09/06 04:43:12;;;;;;;19.35;10.50;;;;;;;19.30;35.71;100629.39;1722019;80;21143;-57
2021/09/06 04:45:40;;;;;;;19.40;11.83;;;;;;;19.30;35.69;100626.24;1719553;81;21062;-58
2021/09/06 04:48:08;;;;;;;29.80;12.37;;;;;;;19.29;35.70;100623.17;1740075;80;21095;-58
2021/09/06 04:50:35;;;;;;;28.17;12.50;;;;;;;19.33;35.71;100627.02;1717366;81;21072;-59
2021/09/06 04:53:02;;;;;;;27.50;12.73;;;;;;;19.35;35.72;100633.13;1722155;80;21046;-59
2021/09/06 04:55:31;;;;;;;26.30;13.38;;;;;;;19.38;35.73;100628.97;1727571;81;22185;-56
2021/09/06 04:57:57;;;;;;;24.55;13.38;;;;;;;19.40;35.75;100627.07;1708517;81;21094;-58
2021/09/06 05:00:25;;;;;;;25.97;13.15;;;;;;;19.44;35.80;100628.16;1699828;81;21258;-58
2021/09/06 05:02:53;;;;;;;27.20;11.53;;;;;;;19.46;35.94;100628.09;1722918;80;21126;-54
2021/09/06 05:05:20;;;;;;;19.60;10.08;;;;;;;19.47;36.04;100628.00;1728321;80;20984;-52
2021/09/06 05:07:47;;;;;;;17.55;9.15;;;;;;;19.50;36.73;100629.63;1718549;80;21051;-55
2021/09/06 05:10:14;;;;;;;19.52;9.35;;;;;;;19.57;37.36;100629.71;1688001;80;21425;-53
2021/09/06 05:12:40;;;;;;;22.75;9.60;;;;;;;19.65;37.58;100623.94;1720522;80;21104;-53
2021/09/06 05:15:10;;;;;;;17.15;9.00;;;;;;;19.73;37.60;100632.88;1715839;80;21190;-54
2021/09/06 05:17:37;;;;;;;21.20;9.23;;;;;;;19.78;37.56;100634.36;1715980;80;21003;-55
2021/09/06 05:20:05;;;;;;;15.80;7.75;;;;;;;19.83;37.54;100631.45;1707659;82;21059;-55
2021/09/06 05:22:32;;;;;;;13.72;7.55;;;;;;;19.86;37.63;100635.28;1674021;83;21572;-54
2021/09/06 05:24:59;;;;;;;18.15;8.45;;;;;;;19.90;37.64;100630.15;1656774;83;21105;-55
2021/09/06 05:27:26;;;;;;;17.98;7.97;;;;;;;19.93;37.56;100633.98;1660627;83;21203;-55
2021/09/06 05:30:11;;;;;;;17.17;7.92;;;;;;;19.97;37.44;100624.88;1698954;82;21032;-52
2021/09/06 05:32:56;;;;;;;24.32;7.47;;;;;;;20.04;37.22;100627.58;1698196;82;21073;-54
2021/09/06 05:35:23;;;;;;;15.75;7.53;;;;;;;20.12;37.04;100638.30;1677692;83;21190;-54
2021/09/06 05:37:51;;;;;;;19.35;7.20;;;;;;;20.15;36.88;100630.11;1680692;83;21130;-55
2021/09/06 05:40:19;;;;;;;15.18;6.90;;;;;;;20.20;36.81;100628.89;1703740;81;21183;-54
2021/09/06 05:42:46;;;;;;;13.32;6.85;;;;;;;20.26;36.77;100629.03;1694035;82;20986;-55
2021/09/06 05:45:13;;;;;;;11.50;6.35;;;;;;;20.33;36.68;100631.73;1640243;84;21080;-55
2021/09/06 05:47:41;;;;;;;14.90;6.35;;;;;;;20.39;36.63;100635.41;1654108;84;21154;-54
2021/09/06 05:50:16;;;;;;;12.18;6.40;;;;;;;20.45;36.55;100627.98;1708891;81;20992;-55
2021/09/06 05:52:41;;;;;;;11.88;5.95;;;;;;;20.52;36.54;100632.00;1713868;81;21819;-55
2021/09/06 05:55:10;;;;;;;9.75;5.30;;;;;;;20.57;36.26;100629.92;1715696;81;21135;-55
2021/09/06 05:57:37;;;;;;;9.33;5.30;;;;;;;20.63;35.94;100636.74;1709662;81;21043;-54
2021/09/06 06:00:07;;;;;;;7.90;4.85;;;;;;;20.67;35.78;100637.81;1724103;80;21740;-55
2021/09/06 06:02:35;;;;;;;9.30;5.50;;;;;;;20.73;35.78;100641.97;1721181;80;21699;-55
2021/09/06 06:05:04;;;;;;;9.03;5.10;;;;;;;20.78;35.84;100636.72;1704067;80;21167;-55
2021/09/06 06:07:33;;;;;;;12.03;4.62;;;;;;;20.86;35.91;100646.94;1717327;80;21027;-55
2021/09/06 06:10:00;;;;;;;10.00;5.35;;;;;;;20.92;36.00;100643.06;1712213;80;21016;-54
2021/09/06 06:12:28;;;;;;;9.63;4.58;;;;;;;21.00;36.03;100640.78;1709258;81;21111;-55
2021/09/06 06:14:55;;;;;;;9.48;4.85;;;;;;;21.05;35.99;100644.05;1732354;80;21580;-54
2021/09/06 06:17:23;;;;;;;5.83;4.03;;;;;;;21.13;35.65;100651.59;1706494;83;21146;-55
2021/09/06 06:19:50;;;;;;;5.53;4.08;;;;;;;21.18;35.53;100649.49;1705284;82;21047;-54
2021/09/06 06:22:35;;;;;;;8.58;4.08;;;;;;;21.23;35.43;100651.89;1667814;83;21174;-54
2021/09/06 06:25:21;;;;;;;5.67;3.80;;;;;;;21.27;35.15;100647.61;1673918;84;21921;-54
2021/09/06 06:27:52;;;;;;;5.55;3.75;;;;;;;21.30;34.58;100650.10;1685337;82;21042;-54
2021/09/06 06:30:20;;;;;;;7.03;4.10;;;;;;;21.32;34.65;100644.66;1675081;83;21171;-54
2021/09/06 06:32:47;;;;;;;8.25;3.65;;;;;;;21.36;34.83;100646.17;1682606;83;21649;-54
2021/09/06 06:35:19;;;;;;;11.10;3.60;;;;;;;21.40;35.07;100645.05;1676275;83;21005;-54
2021/09/06 06:37:45;;;;;;;6.22;3.55;;;;;;;21.44;35.17;100644.37;1693815;83;21535;-53
2021/09/06 06:40:14;;;;;;;7.35;3.67;;;;;;;21.49;35.24;100647.66;1669704;83;21052;-54
2021/09/06 06:42:41;;;;;;;7.37;3.80;;;;;;;21.54;35.37;100647.37;1653614;84;21173;-53
2021/09/06 06:45:12;;;;;;;8.25;3.62;;;;;;;21.58;35.38;100639.52;1712040;81;20967;-54
2021/09/06 06:47:42;;;;;;;4.65;3.15;;;;;;;21.62;35.42;100641.03;1723304;81;20970;-54
2021/09/06 06:50:13;;;;;;;10.72;4.17;;;;;;;21.67;35.88;100637.59;1722689;80;21078;-53
2021/09/06 06:52:41;;;;;;;7.28;3.52;;;;;;;21.73;36.50;100639.04;1719610;80;21139;-50
2021/09/06 06:55:13;;;;;;;7.85;3.80;;;;;;;21.78;36.93;100637.78;1720360;79;21151;-50
2021/09/06 07:00:21;;;;;;;9.75;3.37;;;;;;;21.89;37.09;100645.15;1700038;80;21601;-53
2021/09/06 07:02:47;;;;;;;9.38;3.37;;;;;;;21.94;36.92;100640.35;1716815;80;21032;-52
2021/09/06 07:05:14;;;;;;;15.20;2.98;;;;;;;21.99;36.82;100635.55;1710265;81;20999;-52
2021/09/06 07:07:42;;;;;;;13.18;3.50;;;;;;;22.04;36.74;100636.57;1711528;80;21130;-51
2021/09/06 07:10:09;;;;;;;8.48;3.45;;;;;;;22.10;36.77;100642.03;1713236;81;21006;-52
2021/09/06 07:12:38;;;;;;;9.95;3.85;;;;;;;22.14;36.76;100647.11;1708608;80;21249;-51
2021/09/06 07:27:44;;;;;;;16.27;3.02;;;;;;;22.63;36.05;100651.94;1755001;79;20897;-48
2021/09/06 07:30:12;;;;;;;12.98;3.25;;;;;;;22.75;35.51;100654.77;1675253;82;21766;-52
2021/09/06 07:32:39;;;;;;;8.50;2.87;;;;;;;22.79;34.56;100652.23;1690685;83;21502;-52
2021/09/06 07:35:09;;;;;;;5.95;2.67;;;;;;;22.79;34.28;100652.23;1689381;83;21781;-52
2021/09/06 07:37:35;;;;;;;9.30;2.40;;;;;;;22.79;34.03;100650.89;1668339;84;20984;-53
2021/09/06 07:40:03;;;;;;;12.88;2.77;;;;;;;22.78;33.79;100658.58;1700213;83;21063;-52
2021/09/06 07:42:30;;;;;;;5.85;2.65;;;;;;;22.78;33.58;100660.77;1715573;81;21042;-54
2021/09/06 07:44:56;;;;;;;6.78;2.40;;;;;;;22.76;33.83;100653.78;1715818;83;21943;-53
2021/09/06 07:47:23;;;;;;;5.75;2.60;;;;;;;22.76;33.64;100658.69;1698526;83;21129;-53
2021/09/06 07:49:51;;;;;;;4.65;1.87;;;;;;;22.76;32.93;100660.03;1699128;82;21050;-52
2021/09/06 07:52:17;;;;;;;4.45;1.90;;;;;;;22.77;32.68;100663.56;1716308;82;21547;-52
2021/09/06 07:54:44;;;;;;;4.95;2.10;;;;;;;22.77;33.03;100655.51;1682733;85;21079;-53
2021/09/06 08:14:02;;;;;;;8.55;2.45;;;;;;;22.99;31.96;100659.78;1750262;80;21099;-54
2021/09/06 08:16:29;;;;;;;3.05;2.00;;;;;;;23.06;31.77;100656.69;1752166;80;21065;-54
2021/09/06 08:18:56;;;;;;;4.70;1.60;;;;;;;23.05;31.31;100654.95;1750753;80;21526;-52
2021/09/06 08:21:22;;;;;;;3.33;1.60;;;;;;;23.04;31.45;100659.97;1728052;80;20988;-53
2021/09/06 08:23:50;;;;;;;3.20;2.02;;;;;;;23.05;31.58;100658.98;1756635;80;20965;-55
2021/09/06 08:26:17;;;;;;;3.65;1.80;;;;;;;23.05;31.30;100660.32;1755072;80;21916;-53
2021/09/06 08:28:45;;;;;;;8.25;1.60;;;;;;;23.08;31.24;100661.49;1738125;80;21356;-52
2021/09/06 08:31:14;;;;;;;4.40;1.47;;;;;;;23.07;30.34;100664.67;1754540;80;22194;-52
2021/09/06 08:33:41;;;;;;;3.92;1.65;;;;;;;23.02;30.19;100671.30;1746162;79;21832;-52
2021/09/06 08:36:09;;;;;;;7.03;1.82;;;;;;;23.00;29.66;100666.03;1742892;80;20952;-52
2021/09/06 08:38:39;;;;;;;6.97;2.00;;;;;;;22.98;30.07;100664.79;1752341;80;21426;-52
2021/09/06 08:41:06;;;;;;;2.60;1.12;;;;;;;22.99;30.87;100658.44;1744102;80;20956;-52
2021/09/06 08:43:34;;;;;;;5.58;1.80;;;;;;;23.02;30.26;100661.91;1746896;80;21560;-51
2021/09/06 08:46:03;;;;;;;4.67;1.65;;;;;;;23.05;29.83;100661.66;1748613;80;22025;-52
2021/09/06 08:48:31;;;;;;;4.72;1.90;;;;;;;23.07;30.19;100657.11;1745441;80;21144;-54
2021/09/06 08:50:58;;;;;;;5.90;1.62;;;;;;;23.09;31.37;100655.17;1729589;80;21254;-52
2021/09/06 08:53:25;;;;;;;3.55;1.60;;;;;;;23.12;31.82;100660.33;1725001;81;20992;-51
2021/09/06 08:55:55;;;;;;;6.60;2.20;;;;;;;23.13;32.25;100660.23;1730962;80;21510;-53
2021/09/06 08:58:21;;;;;;;3.25;1.80;;;;;;;23.15;32.62;100661.47;1752592;80;21083;-53
2021/09/06 09:00:50;;;;;;;6.65;2.35;;;;;;;23.17;32.98;100663.56;1728981;81;21047;-53
2021/09/06 09:03:19;;;;;;;3.30;1.72;;;;;;;23.19;33.39;100662.96;1746889;80;21184;-52
2021/09/06 09:06:05;;;;;;;9.43;2.30;;;;;;;23.22;33.70;100672.15;1724373;80;21044;-53
2021/09/06 09:08:46;;;;;;;2.85;2.20;;;;;;;23.26;33.90;100672.30;1760602;80;21072;-51
2021/09/06 09:11:18;;;;;;;4.92;2.10;;;;;;;23.30;34.01;100668.45;1753086;80;22214;-52
2021/09/06 09:14:12;;;;;;;4.67;2.40;;;;;;;23.34;33.98;100664.58;1755307;80;21051;-54
2021/09/06 09:16:58;;;;;;;6.62;2.15;;;;;;;23.41;34.05;100664.16;1757534;80;21063;-52
2021/09/06 09:19:34;;;;;;;14.38;2.00;;;;;;;23.46;34.04;100662.00;1728477;80;21509;-53
2021/09/06 09:22:07;;;;;;;6.42;1.80;;;;;;;23.51;33.99;100660.70;1757919;80;21090;-52
2021/09/06 09:24:38;;;;;;;6.45;1.72;;;;;;;23.56;34.00;100661.72;1715478;81;21038;-52
2021/09/06 09:27:31;;;;;;;3.70;1.95;;;;;;;23.62;34.06;100663.98;1741603;80;21643;-53
2021/09/06 09:30:01;;;;;;;6.30;1.87;;;;;;;23.67;34.06;100656.45;1724719;81;22582;-53
2021/09/06 09:32:36;;;;;;;7.90;1.95;;;;;;;23.73;34.02;100652.46;1718534;81;21065;-54
2021/09/06 09:35:11;;;;;;;6.45;1.62;;;;;;;23.80;33.92;100660.94;1757756;80;21119;-52
2021/09/06 09:37:39;;;;;;;3.10;1.60;;;;;;;23.86;33.87;100663.23;1763146;79;21512;-50
2021/09/06 09:40:10;;;;;;;6.03;1.90;;;;;;;23.90;33.77;100664.71;1766233;80;21103;-51
2021/09/06 09:42:48;;;;;;;4.30;1.70;;;;;;;23.95;33.73;100662.55;1762245;80;21087;-51
2021/09/06 09:45:22;;;;;;;7.12;2.15;;;;;;;24.00;33.70;100667.59;1750751;80;22179;-51
2021/09/06 09:48:08;;;;;;;5.25;1.65;;;;;;;24.03;33.58;100662.85;1722389;80;21053;-50
2021/09/06 09:50:36;;;;;;;4.45;1.95;;;;;;;24.05;33.54;100656.88;1751369;80;21087;-51
2021/09/06 09:53:04;;;;;;;4.22;1.67;;;;;;;24.09;33.47;100661.07;1733292;80;21033;-51
2021/09/06 09:55:33;;;;;;;5.00;1.92;;;;;;;24.10;33.42;100658.73;1741114;80;21057;-51
2021/09/06 09:58:02;;;;;;;6.75;1.60;;;;;;;24.13;33.39;100655.48;1774657;80;20997;-52
2021/09/06 10:00:29;;;;;;;5.47;1.77;;;;;;;24.15;33.33;100657.55;1726360;81;21032;-51
2021/09/06 10:03:13;;;;;;;3.50;1.87;;;;;;;24.15;33.28;100657.55;1745957;78;21186;-51
2021/09/06 10:05:41;;;;;;;4.08;1.70;;;;;;;24.17;33.28;100656.95;1660545;83;26487;-52
2021/09/06 10:08:13;;;;;;;3.08;1.55;;;;;;;24.19;33.36;100653.20;1641127;85;21128;-53
2021/09/06 10:10:42;;;;;;;2.85;1.40;;;;;;;24.19;33.33;100656.34;1670905;83;21056;-50
2021/09/06 10:13:12;;;;;;;2.75;1.52;;;;;;;24.19;32.17;100660.37;1661388;84;21181;-52
2021/09/06 10:15:42;;;;;;;2.72;1.60;;;;;;;24.17;32.38;100656.45;1666719;86;21024;-53
2021/09/06 10:18:19;;;;;;;2.95;1.52;;;;;;;24.15;32.33;100657.55;1667563;86;21823;-52
2021/09/06 10:20:49;;;;;;;3.45;1.40;;;;;;;24.14;31.94;100662.55;1666395;85;21242;-51
2021/09/06 10:23:15;;;;;;;1.72;1.32;;;;;;;24.10;32.30;100668.15;1640647;86;21087;-52
2021/09/06 10:25:43;;;;;;;1.62;0.98;;;;;;;24.08;30.44;100668.75;1651575;86;21039;-51
2021/09/06 10:28:16;;;;;;;1.62;1.00;;;;;;;24.00;28.59;100664.41;1640797;86;20997;-52
2021/09/06 10:30:54;;;;;;;2.00;1.17;;;;;;;23.83;27.45;100662.10;1675608;84;21046;-52
2021/09/06 10:33:34;;;;;;;1.55;1.07;;;;;;;23.67;26.79;100659.14;1649508;86;21219;-53
2021/09/06 10:36:20;;;;;;;1.42;1.00;;;;;;;23.53;26.44;100664.63;1657266;84;21118;-53
2021/09/06 10:38:50;;;;;;;1.75;0.90;;;;;;;23.43;27.21;100662.21;1678865;84;21059;-53
2021/09/06 10:41:22;;;;;;;0.65;0.60;;;;;;;23.40;26.80;100662.42;1648577;86;21050;-50
2021/09/06 10:43:54;;;;;;;1.15;0.60;;;;;;;23.34;25.90;100668.60;1649583;86;21055;-51
2021/09/06 10:46:25;;;;;;;0.80;0.80;;;;;;;23.20;25.38;100666.03;1650362;86;21139;-50
2021/09/06 10:48:52;;;;;;;0.90;0.80;;;;;;;23.07;25.57;100663.81;1629429;86;22148;-51
2021/09/06 10:51:28;;;;;;;1.85;0.85;;;;;;;23.00;26.00;100668.22;1657016;86;21542;-50
2021/09/06 10:53:57;;;;;;;1.10;1.00;;;;;;;22.97;25.56;100665.74;1657626;84;21067;-49
2021/09/06 10:56:26;;;;;;;1.12;0.98;;;;;;;22.92;25.60;100663.86;1654773;86;37706;-50
2021/09/06 10:58:55;;;;;;;1.12;0.85;;;;;;;22.90;25.40;100667.13;1623981;86;21095;-52
2021/09/06 11:01:21;;;;;;;1.60;0.90;;;;;;;22.87;25.21;100660.63;1648579;86;20960;-50
2021/09/06 11:03:51;;;;;;;3.90;0.70;;;;;;;22.84;25.24;100660.83;1627531;87;21368;-50
2021/09/06 11:06:27;;;;;;;1.20;0.95;;;;;;;22.82;25.68;100654.22;1646118;87;21120;-50
2021/09/06 11:08:54;;;;;;;1.70;0.85;;;;;;;22.79;25.48;100657.11;1623728;87;21117;-50
2021/09/06 11:11:30;;;;;;;1.17;1.07;;;;;;;22.66;25.16;100653.53;1644204;86;21157;-50
2021/09/06 11:13:57;;;;;;;1.55;0.98;;;;;;;22.50;25.20;100653.71;1664010;84;21068;-50
2021/09/06 11:16:38;;;;;;;5.15;1.10;;;;;;;22.35;25.06;100645.34;1658534;85;21083;-52
2021/09/06 11:19:15;;;;;;;1.57;1.27;;;;;;;22.25;25.09;100647.24;1645298;86;22229;-53
2021/09/06 11:21:43;;;;;;;1.35;0.93;;;;;;;22.13;24.94;100646.72;1659962;86;21172;-50
2021/09/06 11:24:11;;;;;;;2.30;0.98;;;;;;;22.08;25.31;100642.98;1661162;85;21048;-53
2021/09/06 11:26:42;;;;;;;1.45;1.10;;;;;;;22.13;25.69;100645.38;1659275;86;21482;-53
2021/09/06 11:29:09;;;;;;;1.40;1.20;;;;;;;22.20;25.72;100642.66;1671406;84;21087;-52
2021/09/06 11:31:37;;;;;;;2.85;1.30;;;;;;;22.29;26.15;100640.37;1673251;84;21008;-53
2021/09/06 11:34:05;;;;;;;2.90;0.72;;;;;;;22.39;26.69;100636.13;1693025;84;21633;-51
2021/09/06 11:36:32;;;;;;;2.70;1.00;;;;;;;22.51;26.80;100637.13;1692472;84;21977;-50
2021/09/06 11:38:59;;;;;;;0.90;0.90;;;;;;;22.57;26.04;100640.75;1693363;84;21459;-50
2021/09/06 11:41:26;;;;;;;1.22;1.00;;;;;;;22.61;25.87;100646.28;1672601;84;21063;-50
2021/09/06 11:43:53;;;;;;;1.45;0.90;;;;;;;22.62;25.78;100635.45;1692687;84;21651;-50
2021/09/06 11:46:20;;;;;;;2.45;0.82;;;;;;;22.63;25.64;100637.67;1692721;84;21019;-50
2021/09/06 11:48:48;;;;;;;1.20;1.10;;;;;;;22.64;25.73;100632.66;1693293;84;21485;-50
2021/09/06 11:51:16;;;;;;;3.02;1.20;;;;;;;22.60;25.77;100629.33;1692592;84;21059;-50
2021/09/06 11:53:57;;;;;;;2.80;1.00;;;;;;;22.60;25.43;100626.65;1693295;84;21063;-50
2021/09/06 11:56:24;;;;;;;1.12;1.00;;;;;;;22.58;25.38;100621.88;1705356;83;21059;-53
2021/09/06 11:58:59;;;;;;;8.75;1.10;;;;;;;22.52;25.37;100625.45;1702378;84;21047;-54